Terminal Aerodrome Forecast
Issued by NWS Lake Charles, LA

Home | Current Version | Previous Version | Text Only | Print | Product List | Glossary On
Versions: 1 2 3 4 5 6 7 8 9 10 11 12 13 14 15 16 17 18 19
000
FTUS44 KLCH 230520
TAFARA
TAF
KARA 230520Z 2306/2406 04005KT P6SM VCSH FEW025 BKN035
     FM231000 VRB03KT P6SM VCSH SCT025 BKN250
     FM231200 VRB03KT P6SM FEW014 BKN025
     FM231500 11006KT P6SM VCSH BKN025
      TEMPO 2316/2320 5SM TSRA SCT022 BKN035CB
     FM232000 14010KT P6SM VCSH SCT030 OVC070=

USA.gov is the U.S. government's official web portal to all federal, state and local government web resources and services.